Time;durP1;ratioP1;P1;durP2;ratioP2;P2;SDS_P1;SDS_P2;PMS_P1;PMS_P2;Temp;Humidity;BMP_temperature;BMP_pressure;BME280_temperature;BME280_humidity;BME280_pressure;Samples;Min_cycle;Max_cycle;Signal;HPM_P1;HPM_P2
2023/11/07 00:00:04;;;;;;;20.13;8.23;;;5.70;99.90;;;;;;4344110;28;658566;-77
2023/11/07 00:02:53;;;;;;;20.30;7.80;;;5.80;99.90;;;;;;4365533;28;658353;-78
2023/11/07 00:05:40;;;;;;;21.50;7.70;;;5.90;99.90;;;;;;4345837;28;659055;-78
2023/11/07 00:08:28;;;;;;;18.10;7.90;;;5.80;99.90;;;;;;4350303;28;659715;-77
2023/11/07 00:11:15;;;;;;;17.70;7.90;;;5.70;99.90;;;;;;4363114;28;659604;-78
2023/11/07 00:14:04;;;;;;;15.30;8.13;;;5.70;99.90;;;;;;4356034;28;658771;-77
2023/11/07 00:16:52;;;;;;;16.00;7.77;;;5.60;99.90;;;;;;4365727;28;659115;-79
2023/11/07 00:19:39;;;;;;;18.23;7.93;;;5.60;99.90;;;;;;4348292;28;658582;-77
2023/11/07 00:22:26;;;;;;;19.60;8.07;;;5.60;99.90;;;;;;4366741;28;658231;-78
2023/11/07 00:25:13;;;;;;;19.27;8.13;;;5.50;99.90;;;;;;4345070;28;658525;-77
2023/11/07 00:28:02;;;;;;;33.03;12.20;;;5.50;99.90;;;;;;4372661;28;659502;-77
2023/11/07 00:30:52;;;;;;;24.10;11.57;;;5.60;99.90;;;;;;4346509;28;659823;-77
2023/11/07 00:33:39;;;;;;;23.13;10.67;;;5.80;99.90;;;;;;4341199;28;659815;-77
2023/11/07 00:36:26;;;;;;;18.57;9.00;;;5.90;99.90;;;;;;4360523;28;659783;-77
2023/11/07 00:39:14;;;;;;;20.50;8.47;;;5.80;99.90;;;;;;4345878;28;659110;-78
2023/11/07 00:42:01;;;;;;;20.50;8.73;;;5.60;99.90;;;;;;4365297;28;659410;-77
2023/11/07 00:44:49;;;;;;;21.17;8.23;;;5.60;99.90;;;;;;4346468;28;659180;-77
2023/11/07 00:47:38;;;;;;;27.70;10.07;;;5.50;99.90;;;;;;4365799;28;658902;-78
2023/11/07 00:50:25;;;;;;;29.53;12.23;;;5.30;99.90;;;;;;4345476;28;660513;-77
2023/11/07 00:53:13;;;;;;;23.80;10.53;;;5.30;99.90;;;;;;4357957;28;660231;-77
2023/11/07 00:56:00;;;;;;;21.97;8.83;;;5.20;99.90;;;;;;4367809;28;660256;-77
2023/11/07 00:58:48;;;;;;;18.47;8.40;;;5.20;99.90;;;;;;4360912;28;659009;-76
2023/11/07 01:01:35;;;;;;;23.70;10.30;;;5.10;99.90;;;;;;4367269;28;660859;-77
2023/11/07 01:04:24;;;;;;;23.33;10.43;;;5.00;99.90;;;;;;4366752;28;659828;-77
2023/11/07 01:07:12;;;;;;;25.40;12.33;;;5.00;99.90;;;;;;4370778;28;660046;-78
2023/11/07 01:10:00;;;;;;;29.10;11.48;;;5.10;99.90;;;;;;4341365;28;659953;-77
2023/11/07 01:12:47;;;;;;;28.80;13.00;;;5.10;99.90;;;;;;4366193;28;659010;-78
2023/11/07 01:15:34;;;;;;;30.47;13.50;;;5.20;99.90;;;;;;4346263;28;660599;-77
2023/11/07 01:18:21;;;;;;;36.50;13.60;;;5.30;99.90;;;;;;4369957;28;659440;-77
2023/11/07 01:21:10;;;;;;;28.70;13.77;;;5.50;99.90;;;;;;4348913;28;659758;-77
2023/11/07 01:23:57;;;;;;;31.03;13.13;;;5.60;99.90;;;;;;4342728;28;660210;-77
2023/11/07 01:26:45;;;;;;;32.50;12.50;;;5.50;99.90;;;;;;4368288;28;660245;-77
2023/11/07 01:29:32;;;;;;;30.93;12.57;;;5.50;99.90;;;;;;4360996;28;659766;-77
2023/11/07 01:32:20;;;;;;;28.63;12.40;;;5.40;99.90;;;;;;4365380;28;660067;-77
2023/11/07 01:35:09;;;;;;;26.70;10.80;;;5.40;99.90;;;;;;4350925;28;659540;-77
2023/11/07 01:37:57;;;;;;;28.30;11.63;;;5.30;99.90;;;;;;4370918;28;659593;-78
2023/11/07 01:40:45;;;;;;;33.93;12.17;;;5.20;99.90;;;;;;4347665;28;660167;-78
2023/11/07 01:43:32;;;;;;;25.77;11.10;;;5.30;99.90;;;;;;4360412;28;660224;-76
2023/11/07 01:46:20;;;;;;;25.07;11.37;;;5.20;99.90;;;;;;4367417;28;660387;-77
2023/11/07 01:49:08;;;;;;;26.10;11.03;;;5.20;99.90;;;;;;4349642;28;659463;-78
2023/11/07 01:51:57;;;;;;;24.40;12.23;;;5.20;99.90;;;;;;4367304;28;660722;-78
2023/11/07 01:54:45;;;;;;;28.90;11.17;;;5.10;99.90;;;;;;4341002;28;660407;-77
2023/11/07 01:57:32;;;;;;;29.10;9.87;;;5.00;99.90;;;;;;4346259;28;660016;-77
2023/11/07 02:00:20;;;;;;;29.33;10.90;;;5.00;99.90;;;;;;4365516;28;659181;-77
2023/11/07 02:03:08;;;;;;;21.47;9.57;;;5.00;99.90;;;;;;4354240;28;659594;-77
2023/11/07 02:05:55;;;;;;;25.57;8.90;;;4.90;99.90;;;;;;4370452;28;659417;-77
2023/11/07 02:08:43;;;;;;;24.20;9.37;;;4.90;99.90;;;;;;4349753;28;659455;-77
2023/11/07 02:11:31;;;;;;;18.00;9.07;;;4.90;99.90;;;;;;4367727;28;660092;-77
2023/11/07 02:14:28;;;;;;;23.77;9.60;;;4.80;99.90;;;;;;4344635;28;658529;-78
2023/11/07 02:17:15;;;;;;;20.33;9.37;;;4.80;99.90;;;;;;4341258;28;658912;-78
2023/11/07 02:20:04;;;;;;;20.60;9.70;;;4.80;99.90;;;;;;4347871;28;658551;-77
2023/11/07 02:22:54;;;;;;;22.97;8.67;;;4.80;99.90;;;;;;4368545;28;658333;-78
2023/11/07 02:25:43;;;;;;;23.13;9.47;;;4.70;99.90;;;;;;4344876;28;658369;-78
2023/11/07 02:28:31;;;;;;;22.07;9.30;;;4.70;99.90;;;;;;4347527;28;659329;-77
2023/11/07 02:31:18;;;;;;;17.92;8.57;;;4.60;99.90;;;;;;4347486;28;659045;-77
2023/11/07 02:34:06;;;;;;;21.43;8.87;;;4.70;99.90;;;;;;4371322;28;659107;-77
2023/11/07 02:36:53;;;;;;;22.90;8.97;;;4.70;99.90;;;;;;4342415;28;658470;-78
2023/11/07 02:39:41;;;;;;;20.52;9.35;;;4.70;99.90;;;;;;4372903;28;659463;-78
2023/11/07 02:42:30;;;;;;;21.30;10.00;;;4.60;99.90;;;;;;4345796;28;658836;-77
2023/11/07 02:45:17;;;;;;;20.33;8.97;;;4.50;99.90;;;;;;4354910;28;660591;-77
2023/11/07 02:48:06;;;;;;;23.00;9.10;;;4.40;99.90;;;;;;4369198;28;659225;-77
2023/11/07 02:50:53;;;;;;;21.00;8.87;;;4.30;99.90;;;;;;4345987;28;658860;-77
2023/11/07 02:53:40;;;;;;;21.07;9.07;;;4.30;99.90;;;;;;4371380;28;659877;-78
2023/11/07 02:56:28;;;;;;;18.63;9.27;;;4.20;99.90;;;;;;4348248;28;658861;-77
2023/11/07 02:59:16;;;;;;;20.77;9.20;;;4.10;99.90;;;;;;4363708;28;660149;-78
2023/11/07 03:02:04;;;;;;;24.67;10.17;;;4.10;99.90;;;;;;4345400;28;659279;-77
2023/11/07 03:04:54;;;;;;;25.23;11.37;;;4.20;99.90;;;;;;4363430;28;660378;-78
2023/11/07 03:07:41;;;;;;;27.77;11.23;;;4.20;99.90;;;;;;4346438;28;660329;-78
2023/11/07 03:10:36;;;;;;;22.47;10.60;;;4.10;99.90;;;;;;4918196;27;132036;-76
2023/11/07 03:13:23;;;;;;;23.73;10.60;;;4.10;99.90;;;;;;4389721;28;652566;-78
2023/11/07 03:16:11;;;;;;;23.87;10.40;;;4.20;99.90;;;;;;4425341;28;651592;-78
2023/11/07 03:18:58;;;;;;;18.97;9.60;;;4.10;99.90;;;;;;4411726;28;651443;-77
2023/11/07 03:21:45;;;;;;;22.37;10.40;;;4.10;99.90;;;;;;4434909;28;651289;-78
2023/11/07 03:24:32;;;;;;;17.48;8.50;;;4.00;99.90;;;;;;4409293;28;651237;-77
2023/11/07 03:27:21;;;;;;;20.67;8.40;;;4.00;99.90;;;;;;4425662;28;651983;-77
2023/11/07 03:30:10;;;;;;;21.53;7.97;;;4.00;99.90;;;;;;4402428;28;651614;-79
2023/11/07 03:32:57;;;;;;;15.40;7.63;;;3.90;99.90;;;;;;4426503;28;652088;-78
2023/11/07 03:35:46;;;;;;;19.60;7.27;;;3.90;99.90;;;;;;4413030;28;651851;-78
2023/11/07 03:38:33;;;;;;;14.07;6.23;;;4.00;99.90;;;;;;4425670;28;652524;-78
2023/11/07 03:41:22;;;;;;;17.52;7.75;;;4.00;99.90;;;;;;4437364;28;652162;-78
2023/11/07 03:44:10;;;;;;;16.43;6.40;;;3.90;99.90;;;;;;4421257;28;652554;-78
2023/11/07 03:46:58;;;;;;;13.00;5.97;;;3.90;99.90;;;;;;4423968;28;652324;-77
2023/11/07 03:49:45;;;;;;;16.30;6.40;;;3.90;99.90;;;;;;4443067;28;652928;-78
2023/11/07 03:52:32;;;;;;;16.73;6.20;;;4.00;99.90;;;;;;4436480;28;652560;-77
2023/11/07 03:55:20;;;;;;;12.07;6.00;;;4.00;99.90;;;;;;4441395;28;652719;-78
2023/11/07 03:58:07;;;;;;;13.00;6.20;;;3.90;99.90;;;;;;4442593;28;652632;-78
2023/11/07 04:00:56;;;;;;;12.47;5.87;;;3.90;99.90;;;;;;4424909;28;652490;-77
2023/11/07 04:03:44;;;;;;;8.70;4.60;;;4.00;99.90;;;;;;4418627;28;653140;-78
2023/11/07 04:06:31;;;;;;;12.57;4.87;;;4.00;99.90;;;;;;4446019;28;651462;-78
2023/11/07 04:09:18;;;;;;;11.47;4.73;;;4.00;99.90;;;;;;4425964;28;652825;-78
2023/11/07 04:12:06;;;;;;;9.93;3.87;;;4.10;99.90;;;;;;4444002;28;652981;-79
2023/11/07 04:14:54;;;;;;;10.93;4.30;;;4.10;99.90;;;;;;4420955;28;651406;-78
2023/11/07 04:17:43;;;;;;;8.17;4.00;;;4.10;99.90;;;;;;4443116;28;652273;-78
2023/11/07 04:20:30;;;;;;;9.97;4.23;;;4.20;99.90;;;;;;4416268;28;652324;-77
2023/11/07 04:23:18;;;;;;;11.55;4.35;;;4.30;99.90;;;;;;4412306;28;651517;-79
2023/11/07 04:26:07;;;;;;;11.10;4.23;;;4.40;99.90;;;;;;4429189;28;654752;-78
2023/11/07 04:28:54;;;;;;;7.70;3.30;;;4.40;99.90;;;;;;4408712;28;653190;-78
2023/11/07 04:31:42;;;;;;;7.77;3.73;;;4.40;99.90;;;;;;4435054;28;650976;-78
2023/11/07 04:34:30;;;;;;;8.10;3.60;;;4.50;99.90;;;;;;4415529;28;651693;-79
2023/11/07 04:37:18;;;;;;;10.00;3.70;;;4.60;99.90;;;;;;4413152;28;651716;-78
2023/11/07 04:40:07;;;;;;;8.40;3.13;;;4.60;99.90;;;;;;4429861;28;653010;-79
2023/11/07 04:42:54;;;;;;;7.20;3.47;;;4.70;99.90;;;;;;4414896;28;652259;-79
2023/11/07 04:45:41;;;;;;;6.10;2.90;;;4.70;99.90;;;;;;4427183;28;651598;-79
2023/11/07 04:48:30;;;;;;;9.17;3.20;;;4.70;99.90;;;;;;4404183;28;651968;-79
2023/11/07 04:51:20;;;;;;;7.47;2.90;;;4.80;99.90;;;;;;4409849;28;651227;-77
2023/11/07 04:54:07;;;;;;;14.37;3.27;;;4.80;99.90;;;;;;4411436;28;652216;-77
2023/11/07 04:56:55;;;;;;;6.50;3.13;;;4.80;99.90;;;;;;4430767;28;652407;-78
2023/11/07 04:59:42;;;;;;;9.10;3.03;;;4.80;99.90;;;;;;4426949;28;651008;-78
2023/11/07 05:02:30;;;;;;;7.23;3.30;;;4.80;99.90;;;;;;4435579;28;652269;-78
2023/11/07 05:05:17;;;;;;;8.07;3.57;;;4.90;99.90;;;;;;4422190;28;651421;-78
2023/11/07 05:08:06;;;;;;;6.77;3.20;;;4.90;99.90;;;;;;4435188;28;652807;-79
2023/11/07 05:10:54;;;;;;;13.40;3.20;;;4.90;99.90;;;;;;4409019;28;652864;-79
2023/11/07 05:13:43;;;;;;;6.13;3.50;;;4.90;99.90;;;;;;4434027;28;651886;-79
2023/11/07 05:16:30;;;;;;;7.43;3.20;;;5.00;99.90;;;;;;4401817;28;652120;-79
2023/11/07 05:19:18;;;;;;;7.13;2.90;;;5.10;99.90;;;;;;4419058;28;651936;-78
2023/11/07 05:22:05;;;;;;;9.43;3.10;;;5.10;99.90;;;;;;4435180;28;652782;-78
2023/11/07 05:24:54;;;;;;;8.07;3.23;;;5.00;99.90;;;;;;4418745;28;652201;-77
2023/11/07 05:27:41;;;;;;;6.87;3.07;;;4.90;99.90;;;;;;4428392;28;651333;-79
2023/11/07 05:30:28;;;;;;;7.85;3.10;;;4.80;99.90;;;;;;4405629;28;651355;-79
2023/11/07 05:33:16;;;;;;;5.60;2.87;;;4.80;99.90;;;;;;4426632;28;651919;-79
2023/11/07 05:36:04;;;;;;;7.53;3.20;;;4.80;99.90;;;;;;4415064;28;651681;-79
2023/11/07 05:38:51;;;;;;;6.03;3.20;;;4.80;99.90;;;;;;4432121;28;651205;-79
2023/11/07 05:41:40;;;;;;;10.90;4.43;;;4.90;99.90;;;;;;4407609;28;651062;-79
2023/11/07 05:44:27;;;;;;;12.23;5.03;;;5.00;99.90;;;;;;4420328;28;652377;-78
2023/11/07 05:47:15;;;;;;;14.13;5.57;;;5.00;99.90;;;;;;4424571;28;652320;-79
2023/11/07 05:50:04;;;;;;;21.67;9.03;;;5.10;99.90;;;;;;4427595;28;651736;-78
2023/11/07 05:52:51;;;;;;;18.77;7.67;;;5.10;99.90;;;;;;4429209;28;652372;-79
2023/11/07 05:55:38;;;;;;;18.43;9.57;;;5.10;99.90;;;;;;4406882;28;652867;-79
2023/11/07 05:58:27;;;;;;;25.45;11.55;;;5.40;99.90;;;;;;4429593;28;654057;-79
2023/11/07 06:01:14;;;;;;;24.77;10.00;;;5.50;99.90;;;;;;4404379;28;655628;-80
2023/11/07 06:04:03;;;;;;;21.33;10.57;;;5.70;99.90;;;;;;4420240;28;654459;-81
2023/11/07 06:06:51;;;;;;;21.50;9.63;;;5.80;99.90;;;;;;4415868;28;654871;-82
2023/11/07 06:09:38;;;;;;;25.97;12.50;;;5.80;99.90;;;;;;4405315;28;653758;-82
2023/11/07 06:12:25;;;;;;;21.17;10.33;;;6.00;99.90;;;;;;4419524;28;655330;-82
2023/11/07 06:15:14;;;;;;;27.02;11.68;;;6.10;99.90;;;;;;4408789;28;654795;-78
2023/11/07 06:18:03;;;;;;;28.13;10.27;;;6.10;99.90;;;;;;4431138;28;654889;-80
2023/11/07 06:20:50;;;;;;;18.13;9.07;;;6.30;99.90;;;;;;4405038;28;655135;-81
2023/11/07 06:23:37;;;;;;;18.37;8.77;;;6.40;99.90;;;;;;4399356;28;653457;-79
2023/11/07 06:26:25;;;;;;;22.00;9.17;;;6.70;99.90;;;;;;4425690;28;654048;-81
2023/11/07 06:29:13;;;;;;;18.80;9.60;;;6.80;99.90;;;;;;4423308;28;654033;-79
2023/11/07 06:32:02;;;;;;;21.50;9.70;;;7.00;99.90;;;;;;4424794;28;654757;-81
2023/11/07 06:34:49;;;;;;;19.83;9.37;;;7.20;99.90;;;;;;4403651;28;654227;-83
2023/11/07 06:37:36;;;;;;;14.60;9.27;;;7.30;99.90;;;;;;4426664;28;653698;-84
2023/11/07 06:40:23;;;;;;;18.73;8.83;;;7.30;99.90;;;;;;4408415;28;653600;-84
2023/11/07 06:43:11;;;;;;;15.87;7.60;;;7.30;99.90;;;;;;4428855;28;654220;-83
2023/11/07 06:45:58;;;;;;;16.10;8.30;;;7.60;99.90;;;;;;4409973;28;653602;-83
2023/11/07 06:48:47;;;;;;;17.23;7.63;;;7.70;99.90;;;;;;4430768;28;654125;-81
2023/11/07 06:51:34;;;;;;;7.00;3.77;;;7.70;99.90;;;;;;4407976;28;653547;-81
2023/11/07 06:54:21;;;;;;;12.77;6.33;;;7.90;99.90;;;;;;4423769;28;652275;-82
2023/11/07 06:57:09;;;;;;;13.60;5.03;;;8.20;99.90;;;;;;4411184;28;653461;-82
2023/11/07 06:59:57;;;;;;;15.97;6.90;;;8.20;99.90;;;;;;4428467;28;653151;-84
2023/11/07 07:02:47;;;;;;;11.77;5.30;;;8.20;99.90;;;;;;4405016;28;654240;-84
2023/11/07 07:05:35;;;;;;;10.07;5.23;;;8.30;99.90;;;;;;4409760;28;653412;-84
2023/11/07 07:08:23;;;;;;;13.70;6.63;;;8.20;99.90;;;;;;4414651;28;653663;-80
2023/11/07 07:11:10;;;;;;;15.37;6.47;;;8.40;99.90;;;;;;4433550;28;654358;-84
2023/11/07 07:13:58;;;;;;;10.63;5.30;;;8.30;99.90;;;;;;4410491;28;653548;-80
2023/11/07 07:16:46;;;;;;;10.43;4.90;;;8.40;99.90;;;;;;4432693;28;653494;-82
2023/11/07 07:19:37;;;;;;;4.43;2.60;;;8.50;99.90;;;;;;4407138;28;653711;-78
2023/11/07 07:22:28;;;;;;;5.30;2.63;;;8.60;99.90;;;;;;4403544;28;653292;-82
2023/11/07 07:25:20;;;;;;;8.40;4.10;;;8.70;99.90;;;;;;4407107;28;654626;-83
2023/11/07 07:28:07;;;;;;;11.23;4.27;;;8.70;99.90;;;;;;4429683;28;652206;-83
2023/11/07 07:30:55;;;;;;;13.20;3.77;;;8.80;99.90;;;;;;4432770;28;653865;-83
2023/11/07 07:33:42;;;;;;;7.93;2.67;;;9.00;99.90;;;;;;4417862;28;653430;-79
2023/11/07 07:36:30;;;;;;;8.13;2.70;;;9.10;99.90;;;;;;4429214;28;653085;-81
2023/11/07 07:39:28;;;;;;;9.37;3.30;;;9.10;99.90;;;;;;4427720;28;652529;-79
2023/11/07 07:42:17;;;;;;;6.37;3.27;;;9.10;99.90;;;;;;4403778;28;652653;-81
2023/11/07 07:45:07;;;;;;;8.90;3.40;;;9.20;99.90;;;;;;4407291;28;653514;-80
2023/11/07 07:47:54;;;;;;;3.63;1.83;;;9.30;99.90;;;;;;4409935;28;653235;-81
2023/11/07 07:50:42;;;;;;;4.67;2.40;;;9.40;99.90;;;;;;4426162;28;653780;-80
2023/11/07 07:53:29;;;;;;;6.67;2.37;;;9.40;99.90;;;;;;4407722;28;654042;-80
2023/11/07 07:56:18;;;;;;;12.30;2.53;;;9.60;99.90;;;;;;4424030;28;653512;-79
2023/11/07 07:59:05;;;;;;;6.70;1.77;;;9.70;99.90;;;;;;4411217;28;655044;-78
2023/11/07 08:01:55;;;;;;;8.00;3.03;;;9.80;99.90;;;;;;4407740;28;653511;-79
2023/11/07 08:04:42;;;;;;;4.30;1.48;;;9.90;99.90;;;;;;4405910;28;652989;-76
2023/11/07 08:07:30;;;;;;;2.60;1.67;;;10.10;99.90;;;;;;4429198;28;654581;-79
2023/11/07 08:10:19;;;;;;;6.47;2.37;;;10.20;99.90;;;;;;4429520;28;654624;-79
2023/11/07 08:13:09;;;;;;;6.90;2.40;;;10.30;99.90;;;;;;4430770;28;655069;-79
2023/11/07 08:15:57;;;;;;;7.97;3.47;;;10.50;99.90;;;;;;4398101;28;654439;-79
2023/11/07 08:18:45;;;;;;;8.87;3.63;;;10.60;99.90;;;;;;4408246;28;654723;-79
2023/11/07 08:21:32;;;;;;;8.30;3.40;;;10.60;99.90;;;;;;4422548;28;654716;-78
2023/11/07 08:24:20;;;;;;;7.23;3.20;;;10.60;99.90;;;;;;4432371;28;655353;-79
2023/11/07 08:27:07;;;;;;;6.57;2.53;;;10.80;99.90;;;;;;4425922;28;654236;-79
2023/11/07 08:29:55;;;;;;;8.23;3.27;;;10.90;99.90;;;;;;4386320;28;655148;-79
2023/11/07 08:32:43;;;;;;;7.50;2.80;;;10.60;99.90;;;;;;4405284;28;654310;-78
2023/11/07 08:35:30;;;;;;;7.53;3.03;;;10.90;99.90;;;;;;4427347;28;654949;-79
2023/11/07 08:38:18;;;;;;;5.37;2.60;;;11.10;99.90;;;;;;4406215;28;654564;-78
2023/11/07 08:41:05;;;;;;;5.77;2.17;;;10.90;99.90;;;;;;4427869;28;654365;-78
2023/11/07 08:43:52;;;;;;;6.10;2.60;;;11.30;99.90;;;;;;4406289;28;654695;-78
2023/11/07 08:46:41;;;;;;;3.87;2.17;;;11.40;99.90;;;;;;4418376;28;655277;-79
2023/11/07 08:49:28;;;;;;;5.73;2.47;;;11.50;99.90;;;;;;4407966;28;654610;-79
2023/11/07 08:52:16;;;;;;;11.03;2.80;;;11.30;99.90;;;;;;4423852;28;655016;-79
2023/11/07 08:55:03;;;;;;;10.27;2.80;;;11.50;99.90;;;;;;4405979;28;655640;-78
2023/11/07 08:57:50;;;;;;;5.13;2.70;;;11.70;99.90;;;;;;4426940;28;656654;-79
2023/11/07 09:00:39;;;;;;;6.93;2.70;;;11.60;99.90;;;;;;4407120;28;654725;-78
2023/11/07 09:03:28;;;;;;;7.50;1.80;;;11.80;99.90;;;;;;4427916;28;654246;-79
2023/11/07 09:06:15;;;;;;;4.13;2.20;;;12.00;99.90;;;;;;4397666;28;655475;-79
2023/11/07 09:09:02;;;;;;;6.60;1.80;;;11.70;99.90;;;;;;4409104;28;654586;-77
2023/11/07 09:11:50;;;;;;;6.43;2.23;;;12.30;99.90;;;;;;4416896;28;655274;-79
2023/11/07 09:14:37;;;;;;;4.20;1.97;;;12.10;99.90;;;;;;4420115;28;654189;-78
2023/11/07 09:17:25;;;;;;;4.83;1.77;;;12.10;99.90;;;;;;4426851;28;656111;-79
2023/11/07 09:20:14;;;;;;;3.83;1.97;;;12.60;99.90;;;;;;4428595;28;654349;-80
2023/11/07 09:23:01;;;;;;;3.73;1.23;;;12.50;99.90;;;;;;4407283;28;655455;-79
2023/11/07 09:25:48;;;;;;;3.17;1.10;;;12.30;99.90;;;;;;4404156;28;654589;-80
2023/11/07 09:28:35;;;;;;;4.83;1.60;;;13.10;99.90;;;;;;4428426;28;655804;-79
2023/11/07 09:31:23;;;;;;;2.73;1.20;;;13.10;99.90;;;;;;4406724;28;654635;-77
2023/11/07 09:34:10;;;;;;;1.80;0.50;;;13.80;99.90;;;;;;4424449;28;655172;-76
2023/11/07 09:36:59;;;;;;;3.43;1.27;;;13.20;99.90;;;;;;4414973;28;654650;-77
2023/11/07 09:39:46;;;;;;;5.70;1.63;;;12.90;99.90;;;;;;4434339;28;655126;-79
2023/11/07 09:42:34;;;;;;;3.40;1.60;;;13.30;99.90;;;;;;4388465;28;654417;-79
2023/11/07 09:45:35;;;;;;;3.10;0.90;;;13.80;99.90;;;;;;4425842;28;654955;-79
2023/11/07 09:48:22;;;;;;;1.73;0.90;;;13.90;99.90;;;;;;4404240;28;654793;-76
2023/11/07 09:51:10;;;;;;;3.07;1.20;;;13.60;99.90;;;;;;4429206;28;655022;-79
2023/11/07 09:53:59;;;;;;;1.03;0.60;;;13.40;99.90;;;;;;4417619;28;654503;-77
2023/11/07 09:59:52;;;;;;;3.00;1.10;;;13.90;99.90;;;;;;4358974;28;654740;-78
2023/11/07 10:02:41;;;;;;;2.70;1.17;;;13.70;99.90;;;;;;4402453;28;654198;-80
2023/11/07 10:05:49;;;;;;;1.70;1.20;;;13.90;99.90;;;;;;4396315;28;654404;-79
2023/11/07 10:08:36;;;;;;;2.93;1.30;;;14.30;99.90;;;;;;4306026;28;654877;-79
2023/11/07 10:14:26;;;;;;;3.43;1.20;;;14.70;94.20;;;;;;4322404;28;654710;-79
2023/11/07 10:17:20;;;;;;;2.70;1.00;;;13.90;99.90;;;;;;4395129;28;654856;-77
2023/11/07 10:20:54;;;;;;;3.03;1.13;;;14.30;95.60;;;;;;4419576;28;654447;-76
2023/11/07 10:23:42;;;;;;;5.00;1.33;;;14.30;93.50;;;;;;4249118;29;654830;-78
2023/11/07 10:26:31;;;;;;;3.93;1.07;;;13.90;95.50;;;;;;4393225;28;654328;-76
2023/11/07 10:29:25;;;;;;;1.13;0.77;;;13.70;95.50;;;;;;4396363;28;654479;-77
2023/11/07 10:32:44;;;;;;;2.87;1.00;;;13.70;93.60;;;;;;4390641;28;654983;-75
2023/11/07 10:35:55;;;;;;;5.00;1.30;;;14.00;94.30;;;;;;4323121;28;655605;-77
2023/11/07 10:45:31;;;;;;;2.20;1.33;;;14.50;90.30;;;;;;4275453;28;655772;-77
2023/11/07 10:59:11;;;;;;;3.57;1.33;;;15.80;83.30;;;;;;4260636;29;654290;-78
2023/11/07 11:02:28;;;;;;;1.20;0.73;;;15.30;77.40;;;;;;4318042;28;655023;-75
2023/11/07 11:05:16;;;;;;;5.63;1.00;;;15.50;76.00;;;;;;4287071;29;655067;-78
2023/11/07 11:08:23;;;;;;;;;;;;;;;;;;;;;
2023/11/07 11:11:13;;;;;;;2.43;0.90;;;15.70;73.40;;;;;;4317165;28;655006;-78
2023/11/07 11:14:25;;;;;;;4.33;1.40;;;15.80;71.70;;;;;;4310683;28;655143;-78
2023/11/07 11:17:21;;;;;;;2.73;1.33;;;15.50;73.10;;;;;;4296922;28;654434;-76
2023/11/07 11:20:27;;;;;;;3.47;1.40;;;15.70;75.90;;;;;;4402518;28;654274;-79
2023/11/07 11:23:18;;;;;;;5.87;1.30;;;15.40;76.30;;;;;;4378020;28;655627;-78
2023/11/07 11:26:11;;;;;;;2.97;1.10;;;15.70;71.00;;;;;;4394418;28;655297;-79
2023/11/07 11:28:58;;;;;;;2.80;1.17;;;15.50;75.80;;;;;;4386410;28;655167;-78
2023/11/07 11:31:45;;;;;;;2.83;1.20;;;16.30;67.70;;;;;;4426272;28;655247;-78
2023/11/07 11:34:35;;;;;;;4.67;1.30;;;16.70;65.60;;;;;;4408132;28;654285;-78
2023/11/07 11:37:25;;;;;;;2.37;1.00;;;16.60;64.00;;;;;;4420261;28;654724;-75
2023/11/07 11:40:13;;;;;;;1.13;0.70;;;16.30;64.50;;;;;;4430424;28;654545;-75
2023/11/07 11:43:06;;;;;;;4.00;1.30;;;17.20;65.40;;;;;;4397825;28;655066;-76
2023/11/07 11:45:55;;;;;;;3.50;1.20;;;16.60;65.90;;;;;;4397707;28;654517;-76
2023/11/07 11:49:05;;;;;;;3.88;1.58;;;16.40;62.80;;;;;;4409414;28;654292;-75
2023/11/07 11:51:53;;;;;;;1.40;0.70;;;15.90;66.30;;;;;;4404765;28;654557;-75
2023/11/07 11:54:54;;;;;;;1.73;0.70;;;17.10;63.80;;;;;;4407333;28;655469;-75
2023/11/07 11:58:16;;;;;;;3.77;1.10;;;17.10;61.30;;;;;;4394344;28;654514;-76
2023/11/07 12:01:04;;;;;;;3.93;1.43;;;16.70;63.90;;;;;;4380392;28;655076;-75
2023/11/07 12:03:52;;;;;;;1.80;0.83;;;15.80;64.20;;;;;;4416367;28;654903;-74
2023/11/07 12:07:13;;;;;;;3.00;1.27;;;16.90;64.30;;;;;;4397550;28;654693;-75
2023/11/07 12:10:07;;;;;;;4.77;1.20;;;16.90;63.10;;;;;;4375585;28;654627;-76
2023/11/07 12:12:58;;;;;;;1.43;0.93;;;15.50;61.90;;;;;;4399608;28;654939;-75
2023/11/07 12:15:45;;;;;;;1.77;0.80;;;16.80;63.20;;;;;;4407483;28;655182;-76
2023/11/07 12:18:39;;;;;;;4.07;0.70;;;16.80;60.10;;;;;;4403771;28;654270;-75
2023/11/07 12:21:28;;;;;;;2.20;1.20;;;15.80;62.60;;;;;;4399295;28;654693;-77
2023/11/07 12:24:15;;;;;;;1.57;0.90;;;16.30;66.20;;;;;;4397455;28;654772;-75
2023/11/07 12:27:04;;;;;;;3.17;1.00;;;15.70;63.10;;;;;;4422089;28;654759;-75
2023/11/07 12:29:52;;;;;;;2.77;1.13;;;16.20;61.20;;;;;;4429218;28;654336;-75
2023/11/07 12:32:39;;;;;;;1.80;1.00;;;16.40;60.30;;;;;;4413584;28;654377;-75
2023/11/07 12:35:27;;;;;;;2.93;1.03;;;16.20;66.20;;;;;;4426545;28;654617;-75
2023/11/07 12:38:18;;;;;;;3.83;1.00;;;16.80;59.80;;;;;;4410659;28;656029;-75
2023/11/07 12:41:06;;;;;;;2.63;0.63;;;16.40;64.10;;;;;;4399859;28;655769;-74
2023/11/07 12:43:55;;;;;;;2.47;1.00;;;16.50;59.10;;;;;;4412613;28;654533;-75
2023/11/07 12:46:42;;;;;;;3.50;1.20;;;16.70;58.10;;;;;;4420547;28;654613;-75
2023/11/07 12:49:29;;;;;;;5.47;1.07;;;17.40;57.40;;;;;;4405536;28;655685;-73
2023/11/07 12:52:17;;;;;;;1.93;1.10;;;18.00;54.70;;;;;;4426904;28;655300;-74
2023/11/07 12:55:17;;;;;;;2.10;1.17;;;16.40;57.90;;;;;;4406965;28;654337;-74
2023/11/07 12:58:05;;;;;;;3.30;1.10;;;15.70;59.10;;;;;;4377199;28;654666;-74
2023/11/07 13:00:57;;;;;;;6.47;1.30;;;15.40;63.00;;;;;;4431484;28;654331;-74
2023/11/07 13:03:44;;;;;;;2.50;1.03;;;15.20;65.70;;;;;;4404247;28;655194;-73
2023/11/07 13:06:32;;;;;;;4.43;1.67;;;15.80;63.00;;;;;;4418225;28;654492;-73
2023/11/07 13:09:21;;;;;;;3.47;1.53;;;15.10;66.60;;;;;;4410211;28;655031;-74
2023/11/07 13:12:08;;;;;;;3.07;1.20;;;15.50;65.90;;;;;;4406451;28;654354;-74
2023/11/07 13:14:55;;;;;;;1.90;1.07;;;15.40;63.60;;;;;;4424862;28;655044;-74
2023/11/07 13:17:45;;;;;;;2.30;1.00;;;15.70;62.20;;;;;;4409289;28;654721;-75
2023/11/07 13:20:33;;;;;;;3.87;1.23;;;15.60;60.80;;;;;;4405798;28;654338;-75
2023/11/07 13:23:20;;;;;;;1.07;0.80;;;14.60;61.40;;;;;;4420155;28;654694;-76
2023/11/07 13:26:08;;;;;;;4.70;0.60;;;15.50;61.90;;;;;;4419689;28;654854;-75
2023/11/07 13:28:55;;;;;;;2.90;1.10;;;15.80;59.80;;;;;;4429905;28;654331;-76
2023/11/07 13:31:43;;;;;;;4.63;1.00;;;15.10;62.80;;;;;;4410603;28;654341;-75
2023/11/07 13:34:33;;;;;;;4.23;1.30;;;15.30;61.20;;;;;;4416110;28;654466;-75
2023/11/07 13:37:21;;;;;;;4.47;1.50;;;15.40;62.60;;;;;;4385692;28;654770;-76
2023/11/07 13:40:09;;;;;;;3.83;1.17;;;15.50;62.10;;;;;;4399559;28;655157;-75
2023/11/07 13:42:57;;;;;;;4.65;1.48;;;15.70;60.80;;;;;;4424764;28;655034;-76
2023/11/07 13:45:44;;;;;;;6.90;1.90;;;15.80;64.00;;;;;;4401164;28;655613;-76
2023/11/07 13:48:33;;;;;;;3.90;1.63;;;15.80;66.20;;;;;;4421760;28;654555;-75
2023/11/07 13:51:21;;;;;;;4.37;1.40;;;16.10;62.20;;;;;;4410011;28;656183;-75
2023/11/07 13:54:09;;;;;;;2.10;1.17;;;16.00;59.90;;;;;;4404247;28;654594;-76
2023/11/07 13:56:56;;;;;;;3.63;1.27;;;16.30;63.40;;;;;;4431407;28;654528;-76
2023/11/07 13:59:43;;;;;;;2.57;0.87;;;16.40;59.00;;;;;;4403131;28;655082;-76
2023/11/07 14:02:31;;;;;;;2.00;0.90;;;15.00;61.30;;;;;;4423725;28;655796;-75
2023/11/07 14:05:18;;;;;;;2.93;0.93;;;14.70;60.40;;;;;;4413020;28;654804;-74
2023/11/07 14:08:07;;;;;;;3.73;1.20;;;15.00;62.10;;;;;;4425015;28;655434;-74
2023/11/07 14:10:54;;;;;;;4.10;0.93;;;15.50;60.90;;;;;;4411459;28;655167;-74
2023/11/07 14:13:41;;;;;;;3.67;1.00;;;15.60;60.70;;;;;;4434634;28;655115;-74
2023/11/07 14:16:29;;;;;;;2.73;1.20;;;16.10;58.80;;;;;;4401972;28;655456;-75
2023/11/07 14:19:16;;;;;;;3.83;1.20;;;16.10;60.80;;;;;;4430513;28;654821;-74
2023/11/07 14:22:06;;;;;;;5.67;1.30;;;16.10;58.00;;;;;;4401247;28;654515;-74
2023/11/07 14:24:59;;;;;;;5.63;1.57;;;15.20;60.60;;;;;;4403856;28;654405;-74
2023/11/07 14:27:46;;;;;;;3.77;1.20;;;14.10;62.90;;;;;;4401271;28;655034;-75
2023/11/07 14:30:36;;;;;;;2.92;1.20;;;13.60;67.80;;;;;;4406042;28;655208;-74
2023/11/07 14:33:24;;;;;;;4.87;1.30;;;13.80;68.10;;;;;;4403197;28;654398;-75
2023/11/07 14:36:12;;;;;;;2.33;1.20;;;13.50;70.80;;;;;;4420566;28;654394;-75
2023/11/07 14:39:01;;;;;;;2.93;1.27;;;12.80;76.30;;;;;;4434767;28;654422;-76
2023/11/07 14:41:52;;;;;;;5.57;1.43;;;12.40;82.00;;;;;;4409886;28;655224;-75
2023/11/07 14:44:39;;;;;;;4.40;1.40;;;12.20;90.30;;;;;;4396861;28;656204;-75
2023/11/07 14:47:26;;;;;;;4.63;1.60;;;11.70;99.90;;;;;;4406315;28;654052;-76
2023/11/07 14:50:14;;;;;;;3.40;1.37;;;11.60;99.90;;;;;;4409515;28;654817;-75
2023/11/07 14:53:01;;;;;;;3.97;1.40;;;11.70;99.90;;;;;;4430779;28;654214;-75